sensor_id;sensor_type;location;lat;lon;timestamp;pressure;altitude;pressure_sealevel;temperature;humidity
49657;BME280;71194;38.900;-77.124;2023-09-12T00:00:47;100261.12;;;29.41;43.16
49657;BME280;71194;38.900;-77.124;2023-09-12T00:03:18;100263.20;;;29.15;43.20
49657;BME280;71194;38.900;-77.124;2023-09-12T00:05:51;100266.37;;;29.22;43.36
49657;BME280;71194;38.900;-77.124;2023-09-12T00:08:19;100265.85;;;29.42;43.18
49657;BME280;71194;38.900;-77.124;2023-09-12T00:11:13;100266.70;;;29.62;43.25
49657;BME280;71194;38.900;-77.124;2023-09-12T00:13:41;100269.50;;;29.23;43.14
49657;BME280;71194;38.900;-77.124;2023-09-12T00:16:09;100270.11;;;29.52;43.53
49657;BME280;71194;38.900;-77.124;2023-09-12T00:18:37;100276.38;;;29.19;43.59
49657;BME280;71194;38.900;-77.124;2023-09-12T00:21:04;100279.75;;;29.20;43.59
49657;BME280;71194;38.900;-77.124;2023-09-12T00:23:33;100280.42;;;29.02;43.59
49657;BME280;71194;38.900;-77.124;2023-09-12T00:26:00;100281.70;;;29.08;43.71
49657;BME280;71194;38.900;-77.124;2023-09-12T00:28:28;100285.53;;;29.19;43.85
49657;BME280;71194;38.900;-77.124;2023-09-12T00:30:56;100289.15;;;28.79;44.04
49657;BME280;71194;38.900;-77.124;2023-09-12T00:33:24;100291.46;;;28.54;44.05
49657;BME280;71194;38.900;-77.124;2023-09-12T00:35:52;100295.27;;;29.00;44.11
49657;BME280;71194;38.900;-77.124;2023-09-12T00:38:19;100295.04;;;28.73;44.07
49657;BME280;71194;38.900;-77.124;2023-09-12T00:40:47;100298.20;;;28.74;44.02
49657;BME280;71194;38.900;-77.124;2023-09-12T00:43:16;100302.38;;;28.46;43.88
49657;BME280;71194;38.900;-77.124;2023-09-12T00:45:43;100305.74;;;28.87;43.76
49657;BME280;71194;38.900;-77.124;2023-09-12T00:48:12;100312.12;;;28.56;43.72
49657;BME280;71194;38.900;-77.124;2023-09-12T00:50:41;100316.78;;;28.81;43.78
49657;BME280;71194;38.900;-77.124;2023-09-12T00:53:10;100317.23;;;28.61;43.69
49657;BME280;71194;38.900;-77.124;2023-09-12T00:55:42;100316.72;;;28.47;43.52
49657;BME280;71194;38.900;-77.124;2023-09-12T00:58:12;100317.92;;;29.27;42.38
49657;BME280;71194;38.900;-77.124;2023-09-12T01:00:41;100329.07;;;29.26;42.73
49657;BME280;71194;38.900;-77.124;2023-09-12T01:03:10;100328.61;;;28.81;42.62
49657;BME280;71194;38.900;-77.124;2023-09-12T01:05:38;100331.93;;;29.02;42.57
49657;BME280;71194;38.900;-77.124;2023-09-12T01:08:06;100337.44;;;28.70;42.92
49657;BME280;71194;38.900;-77.124;2023-09-12T01:10:34;100336.12;;;28.34;43.35
49657;BME280;71194;38.900;-77.124;2023-09-12T01:13:03;100332.73;;;28.20;43.64
49657;BME280;71194;38.900;-77.124;2023-09-12T01:15:30;100333.22;;;27.81;44.06
49657;BME280;71194;38.900;-77.124;2023-09-12T01:17:58;100337.99;;;28.05;44.36
49657;BME280;71194;38.900;-77.124;2023-09-12T01:20:30;100339.01;;;27.96;44.61
49657;BME280;71194;38.900;-77.124;2023-09-12T01:23:15;100337.26;;;27.98;44.90
49657;BME280;71194;38.900;-77.124;2023-09-12T01:26:03;100341.63;;;28.05;44.76
49657;BME280;71194;38.900;-77.124;2023-09-12T01:28:39;100343.99;;;27.91;45.01
49657;BME280;71194;38.900;-77.124;2023-09-12T01:31:08;100348.76;;;27.77;45.41
49657;BME280;71194;38.900;-77.124;2023-09-12T01:33:36;100349.69;;;27.78;45.49
49657;BME280;71194;38.900;-77.124;2023-09-12T01:36:04;100351.60;;;27.94;45.57
49657;BME280;71194;38.900;-77.124;2023-09-12T01:38:31;100349.99;;;27.96;45.21
49657;BME280;71194;38.900;-77.124;2023-09-12T01:41:00;100351.76;;;28.12;45.66
49657;BME280;71194;38.900;-77.124;2023-09-12T01:43:29;100354.69;;;27.86;45.81
49657;BME280;71194;38.900;-77.124;2023-09-12T01:46:00;100353.25;;;27.94;45.54
49657;BME280;71194;38.900;-77.124;2023-09-12T01:48:33;100357.73;;;27.40;45.93
49657;BME280;71194;38.900;-77.124;2023-09-12T01:51:02;100364.75;;;27.81;45.79
49657;BME280;71194;38.900;-77.124;2023-09-12T01:53:32;100366.65;;;27.89;45.67
49657;BME280;71194;38.900;-77.124;2023-09-12T01:56:01;100368.75;;;28.93;44.39
49657;BME280;71194;38.900;-77.124;2023-09-12T01:58:29;100368.62;;;29.26;43.28
49657;BME280;71194;38.900;-77.124;2023-09-12T02:00:58;100368.70;;;29.43;42.85
49657;BME280;71194;38.900;-77.124;2023-09-12T02:03:26;100375.48;;;28.06;44.67
49657;BME280;71194;38.900;-77.124;2023-09-12T02:05:54;100375.35;;;29.05;43.35
49657;BME280;71194;38.900;-77.124;2023-09-12T02:08:22;100375.04;;;29.56;43.03
49657;BME280;71194;38.900;-77.124;2023-09-12T02:10:50;100372.02;;;28.11;45.13
49657;BME280;71194;38.900;-77.124;2023-09-12T02:13:18;100372.01;;;27.63;45.20
49657;BME280;71194;38.900;-77.124;2023-09-12T02:15:45;100371.54;;;27.62;45.72
49657;BME280;71194;38.900;-77.124;2023-09-12T02:18:13;100375.85;;;27.66;45.78
49657;BME280;71194;38.900;-77.124;2023-09-12T02:20:42;100376.64;;;27.24;46.58
49657;BME280;71194;38.900;-77.124;2023-09-12T02:23:10;100376.45;;;27.22;46.80
49657;BME280;71194;38.900;-77.124;2023-09-12T02:25:38;100378.67;;;27.69;46.49
49657;BME280;71194;38.900;-77.124;2023-09-12T02:28:06;100384.23;;;27.56;47.22
49657;BME280;71194;38.900;-77.124;2023-09-12T02:30:33;100386.18;;;27.42;47.86
49657;BME280;71194;38.900;-77.124;2023-09-12T02:33:01;100387.09;;;27.23;48.14
49657;BME280;71194;38.900;-77.124;2023-09-12T02:35:29;100387.65;;;27.70;47.40
49657;BME280;71194;38.900;-77.124;2023-09-12T02:37:57;100389.05;;;27.38;49.19
49657;BME280;71194;38.900;-77.124;2023-09-12T02:40:25;100389.28;;;27.15;49.39
49657;BME280;71194;38.900;-77.124;2023-09-12T02:42:53;100387.78;;;27.30;49.83
49657;BME280;71194;38.900;-77.124;2023-09-12T02:45:21;100381.70;;;27.48;50.14
49657;BME280;71194;38.900;-77.124;2023-09-12T02:47:49;100378.36;;;27.37;50.28
49657;BME280;71194;38.900;-77.124;2023-09-12T02:50:17;100375.86;;;27.73;50.48
49657;BME280;71194;38.900;-77.124;2023-09-12T02:52:45;100378.20;;;27.87;50.92
49657;BME280;71194;38.900;-77.124;2023-09-12T02:55:13;100380.22;;;27.95;51.30
49657;BME280;71194;38.900;-77.124;2023-09-12T02:57:41;100385.40;;;27.98;51.75
49657;BME280;71194;38.900;-77.124;2023-09-12T03:00:10;100382.60;;;27.62;52.72
49657;BME280;71194;38.900;-77.124;2023-09-12T03:02:37;100383.95;;;27.86;52.57
49657;BME280;71194;38.900;-77.124;2023-09-12T03:05:06;100379.72;;;27.57;53.42
49657;BME280;71194;38.900;-77.124;2023-09-12T03:07:33;100375.82;;;27.48;53.53
49657;BME280;71194;38.900;-77.124;2023-09-12T03:10:01;100378.07;;;27.66;53.50
49657;BME280;71194;38.900;-77.124;2023-09-12T03:12:29;100379.78;;;27.90;54.01
49657;BME280;71194;38.900;-77.124;2023-09-12T03:14:57;100382.93;;;27.83;54.49
49657;BME280;71194;38.900;-77.124;2023-09-12T03:17:25;100383.53;;;27.72;55.15
49657;BME280;71194;38.900;-77.124;2023-09-12T03:19:53;100380.01;;;27.52;55.96
49657;BME280;71194;38.900;-77.124;2023-09-12T03:22:20;100376.32;;;27.43;56.33
49657;BME280;71194;38.900;-77.124;2023-09-12T03:24:48;100370.14;;;27.36;56.54
49657;BME280;71194;38.900;-77.124;2023-09-12T03:27:16;100368.05;;;27.05;56.24
49657;BME280;71194;38.900;-77.124;2023-09-12T03:29:47;100369.71;;;27.39;56.54
49657;BME280;71194;38.900;-77.124;2023-09-12T03:32:15;100378.41;;;27.12;56.74
49657;BME280;71194;38.900;-77.124;2023-09-12T03:34:43;100383.90;;;27.43;56.68
49657;BME280;71194;38.900;-77.124;2023-09-12T03:37:10;100385.96;;;27.41;56.75
49657;BME280;71194;38.900;-77.124;2023-09-12T03:39:39;100385.63;;;27.32;57.04
49657;BME280;71194;38.900;-77.124;2023-09-12T03:42:06;100385.30;;;27.26;57.35
49657;BME280;71194;38.900;-77.124;2023-09-12T03:44:34;100382.21;;;27.19;57.45
49657;BME280;71194;38.900;-77.124;2023-09-12T03:47:02;100381.06;;;27.46;57.47
49657;BME280;71194;38.900;-77.124;2023-09-12T03:49:30;100382.53;;;27.34;57.33
49657;BME280;71194;38.900;-77.124;2023-09-12T03:51:58;100376.71;;;27.38;57.40
49657;BME280;71194;38.900;-77.124;2023-09-12T03:54:26;100375.12;;;27.48;57.21
49657;BME280;71194;38.900;-77.124;2023-09-12T03:56:54;100377.55;;;27.02;58.04
49657;BME280;71194;38.900;-77.124;2023-09-12T03:59:22;100378.73;;;27.16;58.29
49657;BME280;71194;38.900;-77.124;2023-09-12T04:01:50;100380.75;;;26.95;58.60
49657;BME280;71194;38.900;-77.124;2023-09-12T04:04:18;100389.48;;;26.82;58.98
49657;BME280;71194;38.900;-77.124;2023-09-12T04:06:46;100391.68;;;27.03;59.07
49657;BME280;71194;38.900;-77.124;2023-09-12T04:09:13;100395.44;;;26.81;59.18
49657;BME280;71194;38.900;-77.124;2023-09-12T04:11:41;100395.65;;;26.91;59.29
49657;BME280;71194;38.900;-77.124;2023-09-12T04:14:10;100399.38;;;26.73;59.72
49657;BME280;71194;38.900;-77.124;2023-09-12T04:16:37;100397.85;;;26.67;59.83
49657;BME280;71194;38.900;-77.124;2023-09-12T04:19:06;100401.29;;;26.55;60.03
49657;BME280;71194;38.900;-77.124;2023-09-12T04:21:34;100396.58;;;26.73;60.11
49657;BME280;71194;38.900;-77.124;2023-09-12T04:24:02;100396.72;;;26.81;60.06
49657;BME280;71194;38.900;-77.124;2023-09-12T04:26:29;100393.49;;;26.42;60.22
49657;BME280;71194;38.900;-77.124;2023-09-12T04:28:57;100391.82;;;26.65;60.29
49657;BME280;71194;38.900;-77.124;2023-09-12T04:31:25;100394.95;;;26.53;60.21
49657;BME280;71194;38.900;-77.124;2023-09-12T04:33:54;100390.26;;;26.61;59.66
49657;BME280;71194;38.900;-77.124;2023-09-12T04:36:22;100385.74;;;26.88;59.11
49657;BME280;71194;38.900;-77.124;2023-09-12T04:38:49;100383.44;;;27.27;59.10
49657;BME280;71194;38.900;-77.124;2023-09-12T04:41:17;100379.97;;;26.75;59.20
49657;BME280;71194;38.900;-77.124;2023-09-12T04:43:45;100377.46;;;27.05;58.99
49657;BME280;71194;38.900;-77.124;2023-09-12T04:46:13;100377.26;;;27.02;59.07
49657;BME280;71194;38.900;-77.124;2023-09-12T04:48:41;100378.45;;;26.84;59.33
49657;BME280;71194;38.900;-77.124;2023-09-12T04:51:09;100371.50;;;27.13;58.89
49657;BME280;71194;38.900;-77.124;2023-09-12T04:53:37;100373.36;;;27.04;58.80
49657;BME280;71194;38.900;-77.124;2023-09-12T04:56:05;100375.76;;;26.94;59.05
49657;BME280;71194;38.900;-77.124;2023-09-12T04:58:33;100376.32;;;27.02;59.13
49657;BME280;71194;38.900;-77.124;2023-09-12T05:01:01;100374.78;;;27.41;58.53
49657;BME280;71194;38.900;-77.124;2023-09-12T05:03:28;100373.33;;;27.24;58.33
49657;BME280;71194;38.900;-77.124;2023-09-12T05:05:56;100371.36;;;27.22;58.24
49657;BME280;71194;38.900;-77.124;2023-09-12T05:08:24;100370.06;;;26.67;59.10
49657;BME280;71194;38.900;-77.124;2023-09-12T05:10:51;100363.58;;;27.13;58.74
49657;BME280;71194;38.900;-77.124;2023-09-12T05:13:19;100359.42;;;27.00;58.39
49657;BME280;71194;38.900;-77.124;2023-09-12T05:15:48;100355.07;;;26.97;58.32
49657;BME280;71194;38.900;-77.124;2023-09-12T05:18:15;100351.41;;;26.97;58.29
49657;BME280;71194;38.900;-77.124;2023-09-12T05:20:43;100352.06;;;26.91;58.44
49657;BME280;71194;38.900;-77.124;2023-09-12T05:23:11;100350.28;;;27.09;59.14
49657;BME280;71194;38.900;-77.124;2023-09-12T05:25:39;100349.88;;;26.70;59.63
49657;BME280;71194;38.900;-77.124;2023-09-12T05:28:07;100351.70;;;26.75;59.80
49657;BME280;71194;38.900;-77.124;2023-09-12T05:30:35;100353.24;;;26.65;59.89
49657;BME280;71194;38.900;-77.124;2023-09-12T05:33:03;100352.31;;;26.87;60.03
49657;BME280;71194;38.900;-77.124;2023-09-12T05:35:32;100350.32;;;26.78;60.21
49657;BME280;71194;38.900;-77.124;2023-09-12T05:38:00;100351.72;;;26.66;60.17
49657;BME280;71194;38.900;-77.124;2023-09-12T05:40:27;100350.74;;;26.86;59.72
49657;BME280;71194;38.900;-77.124;2023-09-12T05:42:55;100350.51;;;26.72;59.46
49657;BME280;71194;38.900;-77.124;2023-09-12T05:45:23;100344.89;;;26.97;59.45
49657;BME280;71194;38.900;-77.124;2023-09-12T05:47:51;100346.45;;;27.05;59.54
49657;BME280;71194;38.900;-77.124;2023-09-12T05:50:19;100345.97;;;26.57;60.37
49657;BME280;71194;38.900;-77.124;2023-09-12T05:52:47;100348.55;;;26.57;60.84
49657;BME280;71194;38.900;-77.124;2023-09-12T05:55:15;100347.37;;;26.46;61.20
49657;BME280;71194;38.900;-77.124;2023-09-12T05:57:43;100348.86;;;26.42;61.35
49657;BME280;71194;38.900;-77.124;2023-09-12T06:00:12;100347.50;;;26.36;61.55
49657;BME280;71194;38.900;-77.124;2023-09-12T06:02:40;100348.18;;;26.16;61.61
49657;BME280;71194;38.900;-77.124;2023-09-12T06:05:08;100345.98;;;26.51;61.39
49657;BME280;71194;38.900;-77.124;2023-09-12T06:07:35;100344.84;;;26.55;61.19
49657;BME280;71194;38.900;-77.124;2023-09-12T06:10:03;100343.48;;;26.39;61.48
49657;BME280;71194;38.900;-77.124;2023-09-12T06:12:32;100344.80;;;26.55;61.34
49657;BME280;71194;38.900;-77.124;2023-09-12T06:15:00;100341.93;;;26.41;61.55
49657;BME280;71194;38.900;-77.124;2023-09-12T06:17:28;100337.20;;;26.61;61.38
49657;BME280;71194;38.900;-77.124;2023-09-12T06:19:56;100339.04;;;26.77;60.81
49657;BME280;71194;38.900;-77.124;2023-09-12T06:22:24;100340.47;;;26.76;60.65
49657;BME280;71194;38.900;-77.124;2023-09-12T06:24:52;100340.21;;;26.78;60.61
49657;BME280;71194;38.900;-77.124;2023-09-12T06:27:20;100335.06;;;26.62;60.71
49657;BME280;71194;38.900;-77.124;2023-09-12T06:29:48;100333.96;;;26.56;60.91
49657;BME280;71194;38.900;-77.124;2023-09-12T06:32:16;100333.34;;;26.65;60.85
49657;BME280;71194;38.900;-77.124;2023-09-12T06:34:44;100327.60;;;26.63;60.80
49657;BME280;71194;38.900;-77.124;2023-09-12T06:37:13;100330.95;;;26.46;61.04
49657;BME280;71194;38.900;-77.124;2023-09-12T06:39:40;100325.44;;;26.26;61.55
49657;BME280;71194;38.900;-77.124;2023-09-12T06:42:09;100325.08;;;26.18;61.84
49657;BME280;71194;38.900;-77.124;2023-09-12T06:44:37;100319.49;;;26.61;61.62
49657;BME280;71194;38.900;-77.124;2023-09-12T06:47:06;100317.86;;;26.32;61.52
49657;BME280;71194;38.900;-77.124;2023-09-12T06:49:34;100310.42;;;26.18;62.00
49657;BME280;71194;38.900;-77.124;2023-09-12T06:52:02;100311.27;;;26.12;62.22
49657;BME280;71194;38.900;-77.124;2023-09-12T06:54:30;100316.83;;;26.32;62.42
49657;BME280;71194;38.900;-77.124;2023-09-12T06:56:58;100314.76;;;26.15;62.38
49657;BME280;71194;38.900;-77.124;2023-09-12T06:59:26;100310.88;;;26.00;61.60
49657;BME280;71194;38.900;-77.124;2023-09-12T07:01:54;100305.75;;;26.26;61.57
49657;BME280;71194;38.900;-77.124;2023-09-12T07:04:22;100308.30;;;26.51;61.16
49657;BME280;71194;38.900;-77.124;2023-09-12T07:06:49;100310.35;;;26.43;61.15
49657;BME280;71194;38.900;-77.124;2023-09-12T07:09:17;100310.63;;;26.19;61.86
49657;BME280;71194;38.900;-77.124;2023-09-12T07:11:45;100307.42;;;26.02;62.34
49657;BME280;71194;38.900;-77.124;2023-09-12T07:14:13;100306.04;;;26.17;62.51
49657;BME280;71194;38.900;-77.124;2023-09-12T07:16:41;100302.75;;;26.44;62.03
49657;BME280;71194;38.900;-77.124;2023-09-12T07:19:09;100304.24;;;26.62;61.36
49657;BME280;71194;38.900;-77.124;2023-09-12T07:21:37;100305.82;;;26.43;61.04
49657;BME280;71194;38.900;-77.124;2023-09-12T07:24:05;100302.50;;;26.50;60.99
49657;BME280;71194;38.900;-77.124;2023-09-12T07:26:33;100304.03;;;26.39;61.28
49657;BME280;71194;38.900;-77.124;2023-09-12T07:29:01;100309.71;;;26.27;61.50
49657;BME280;71194;38.900;-77.124;2023-09-12T07:31:29;100312.34;;;26.19;62.58
49657;BME280;71194;38.900;-77.124;2023-09-12T07:33:57;100313.52;;;26.02;62.82
49657;BME280;71194;38.900;-77.124;2023-09-12T07:36:25;100311.61;;;26.03;63.07
49657;BME280;71194;38.900;-77.124;2023-09-12T07:38:52;100307.98;;;26.40;62.15
49657;BME280;71194;38.900;-77.124;2023-09-12T07:41:20;100308.22;;;26.61;61.44
49657;BME280;71194;38.900;-77.124;2023-09-12T07:43:48;100305.41;;;26.68;61.10
49657;BME280;71194;38.900;-77.124;2023-09-12T07:46:16;100305.33;;;26.66;61.04
49657;BME280;71194;38.900;-77.124;2023-09-12T07:48:44;100303.28;;;26.54;61.08
49657;BME280;71194;38.900;-77.124;2023-09-12T07:51:13;100304.98;;;26.40;61.18
49657;BME280;71194;38.900;-77.124;2023-09-12T07:53:42;100305.07;;;26.05;62.29
49657;BME280;71194;38.900;-77.124;2023-09-12T07:56:10;100307.25;;;26.05;62.27
49657;BME280;71194;38.900;-77.124;2023-09-12T07:58:38;100310.84;;;26.18;62.33
49657;BME280;71194;38.900;-77.124;2023-09-12T08:01:06;100309.19;;;26.11;62.56
49657;BME280;71194;38.900;-77.124;2023-09-12T08:03:35;100303.26;;;26.21;62.72
49657;BME280;71194;38.900;-77.124;2023-09-12T08:06:04;100299.13;;;26.46;61.96
49657;BME280;71194;38.900;-77.124;2023-09-12T08:08:31;100298.05;;;26.56;61.20
49657;BME280;71194;38.900;-77.124;2023-09-12T08:10:59;100299.87;;;26.57;60.91
49657;BME280;71194;38.900;-77.124;2023-09-12T08:13:28;100300.25;;;26.30;61.16
49657;BME280;71194;38.900;-77.124;2023-09-12T08:15:56;100296.54;;;26.34;61.30
49657;BME280;71194;38.900;-77.124;2023-09-12T08:18:29;100295.95;;;26.37;60.96
49657;BME280;71194;38.900;-77.124;2023-09-12T08:20:57;100298.23;;;26.15;61.26
49657;BME280;71194;38.900;-77.124;2023-09-12T08:23:25;100300.47;;;26.11;61.37
49657;BME280;71194;38.900;-77.124;2023-09-12T08:25:53;100302.68;;;25.97;61.60
49657;BME280;71194;38.900;-77.124;2023-09-12T08:28:21;100302.45;;;25.86;62.25
49657;BME280;71194;38.900;-77.124;2023-09-12T08:30:49;100300.21;;;25.72;63.07
49657;BME280;71194;38.900;-77.124;2023-09-12T08:33:17;100296.90;;;25.56;62.97
49657;BME280;71194;38.900;-77.124;2023-09-12T08:35:45;100298.33;;;26.22;62.48
49657;BME280;71194;38.900;-77.124;2023-09-12T08:38:13;100298.71;;;25.96;62.67
49657;BME280;71194;38.900;-77.124;2023-09-12T08:40:41;100302.46;;;25.42;63.15
49657;BME280;71194;38.900;-77.124;2023-09-12T08:43:15;100300.70;;;25.49;63.22
49657;BME280;71194;38.900;-77.124;2023-09-12T08:45:43;100297.89;;;26.19;62.62
49657;BME280;71194;38.900;-77.124;2023-09-12T08:48:12;100296.42;;;25.92;61.94
49657;BME280;71194;38.900;-77.124;2023-09-12T08:50:41;100292.96;;;26.19;61.56
49657;BME280;71194;38.900;-77.124;2023-09-12T08:53:09;100294.10;;;25.94;61.32
49657;BME280;71194;38.900;-77.124;2023-09-12T08:55:37;100298.88;;;25.95;61.49
49657;BME280;71194;38.900;-77.124;2023-09-12T08:58:05;100300.98;;;25.97;61.97
49657;BME280;71194;38.900;-77.124;2023-09-12T09:00:34;100303.64;;;25.60;62.31
49657;BME280;71194;38.900;-77.124;2023-09-12T09:03:03;100305.88;;;25.75;62.51
49657;BME280;71194;38.900;-77.124;2023-09-12T09:05:33;100307.42;;;25.49;62.66
49657;BME280;71194;38.900;-77.124;2023-09-12T09:08:02;100302.89;;;26.15;62.22
49657;BME280;71194;38.900;-77.124;2023-09-12T09:10:31;100307.98;;;25.64;62.10
49657;BME280;71194;38.900;-77.124;2023-09-12T09:12:59;100313.37;;;25.72;62.00
49657;BME280;71194;38.900;-77.124;2023-09-12T09:15:28;100317.84;;;25.65;62.38
49657;BME280;71194;38.900;-77.124;2023-09-12T09:17:58;100322.65;;;25.67;62.74
49657;BME280;71194;38.900;-77.124;2023-09-12T09:20:30;100328.74;;;25.73;62.77
49657;BME280;71194;38.900;-77.124;2023-09-12T09:23:00;100335.57;;;26.02;62.75
49657;BME280;71194;38.900;-77.124;2023-09-12T09:25:28;100337.68;;;26.12;62.53
49657;BME280;71194;38.900;-77.124;2023-09-12T09:27:56;100337.82;;;25.91;62.26
49657;BME280;71194;38.900;-77.124;2023-09-12T09:30:40;100335.63;;;25.90;62.29
49657;BME280;71194;38.900;-77.124;2023-09-12T09:33:09;100335.72;;;26.01;62.00
49657;BME280;71194;38.900;-77.124;2023-09-12T09:35:37;100339.14;;;26.05;61.58
49657;BME280;71194;38.900;-77.124;2023-09-12T09:38:06;100339.37;;;26.34;61.34
49657;BME280;71194;38.900;-77.124;2023-09-12T09:40:36;100339.15;;;26.04;61.38
49657;BME280;71194;38.900;-77.124;2023-09-12T09:43:04;100337.86;;;26.21;61.74
49657;BME280;71194;38.900;-77.124;2023-09-12T09:45:32;100341.06;;;25.92;61.95
49657;BME280;71194;38.900;-77.124;2023-09-12T09:48:10;100337.61;;;25.66;62.61
49657;BME280;71194;38.900;-77.124;2023-09-12T09:50:44;100333.72;;;25.74;62.74
49657;BME280;71194;38.900;-77.124;2023-09-12T09:53:13;100329.71;;;25.90;62.21
49657;BME280;71194;38.900;-77.124;2023-09-12T09:55:41;100330.94;;;26.21;61.63
49657;BME280;71194;38.900;-77.124;2023-09-12T09:58:09;100329.56;;;26.29;61.96
49657;BME280;71194;38.900;-77.124;2023-09-12T10:00:41;100327.64;;;26.10;61.46
49657;BME280;71194;38.900;-77.124;2023-09-12T10:03:11;100326.75;;;26.24;61.35
49657;BME280;71194;38.900;-77.124;2023-09-12T10:05:41;100325.19;;;26.12;61.53
49657;BME280;71194;38.900;-77.124;2023-09-12T10:08:09;100321.74;;;25.70;62.20
49657;BME280;71194;38.900;-77.124;2023-09-12T10:10:39;100315.28;;;26.03;62.03
49657;BME280;71194;38.900;-77.124;2023-09-12T10:13:09;100309.79;;;25.82;61.73
49657;BME280;71194;38.900;-77.124;2023-09-12T10:15:38;100307.31;;;25.97;61.75
49657;BME280;71194;38.900;-77.124;2023-09-12T10:18:09;100303.35;;;25.94;61.74
49657;BME280;71194;38.900;-77.124;2023-09-12T10:20:45;100303.59;;;25.91;61.80
49657;BME280;71194;38.900;-77.124;2023-09-12T10:23:20;100298.87;;;25.38;61.67
49657;BME280;71194;38.900;-77.124;2023-09-12T10:25:51;100296.16;;;25.77;61.82
49657;BME280;71194;38.900;-77.124;2023-09-12T10:28:19;100295.70;;;25.47;61.95
49657;BME280;71194;38.900;-77.124;2023-09-12T10:30:48;100297.93;;;25.67;62.08
49657;BME280;71194;38.900;-77.124;2023-09-12T10:33:17;100302.94;;;25.20;62.07
49657;BME280;71194;38.900;-77.124;2023-09-12T10:35:47;100305.11;;;25.71;62.10
49657;BME280;71194;38.900;-77.124;2023-09-12T10:38:17;100308.86;;;25.10;62.55
49657;BME280;71194;38.900;-77.124;2023-09-12T10:40:46;100316.72;;;25.53;62.63
49657;BME280;71194;38.900;-77.124;2023-09-12T10:43:15;100326.04;;;25.51;62.94
49657;BME280;71194;38.900;-77.124;2023-09-12T10:45:43;100327.05;;;25.69;62.38
49657;BME280;71194;38.900;-77.124;2023-09-12T10:48:12;100325.00;;;25.73;61.95
49657;BME280;71194;38.900;-77.124;2023-09-12T10:50:40;100329.83;;;25.74;61.72
49657;BME280;71194;38.900;-77.124;2023-09-12T10:53:11;100337.71;;;25.68;61.88
49657;BME280;71194;38.900;-77.124;2023-09-12T10:55:39;100338.60;;;25.74;61.83
49657;BME280;71194;38.900;-77.124;2023-09-12T10:58:09;100342.25;;;25.71;61.84
49657;BME280;71194;38.900;-77.124;2023-09-12T11:00:37;100348.12;;;25.51;61.87
49657;BME280;71194;38.900;-77.124;2023-09-12T11:03:36;100348.46;;;25.78;61.85
49657;BME280;71194;38.900;-77.124;2023-09-12T11:06:04;100352.00;;;25.79;61.82
49657;BME280;71194;38.900;-77.124;2023-09-12T11:09:16;100354.94;;;25.59;61.89
49657;BME280;71194;38.900;-77.124;2023-09-12T11:11:46;100357.02;;;25.74;62.04
49657;BME280;71194;38.900;-77.124;2023-09-12T11:14:15;100361.20;;;25.13;62.38
49657;BME280;71194;38.900;-77.124;2023-09-12T11:16:43;100362.18;;;25.56;62.79
49657;BME280;71194;38.900;-77.124;2023-09-12T11:19:48;100367.24;;;25.69;62.75
49657;BME280;71194;38.900;-77.124;2023-09-12T11:22:33;100364.33;;;25.89;62.58
49657;BME280;71194;38.900;-77.124;2023-09-12T11:25:02;100367.70;;;26.05;62.33
49657;BME280;71194;38.900;-77.124;2023-09-12T11:27:32;100367.64;;;25.66;62.13
49657;BME280;71194;38.900;-77.124;2023-09-12T11:30:05;100373.30;;;26.06;62.04
49657;BME280;71194;38.900;-77.124;2023-09-12T11:32:36;100377.31;;;25.92;62.11
49657;BME280;71194;38.900;-77.124;2023-09-12T11:35:06;100379.97;;;26.26;62.04
49657;BME280;71194;38.900;-77.124;2023-09-12T11:37:35;100383.81;;;26.10;61.95
49657;BME280;71194;38.900;-77.124;2023-09-12T11:40:16;100383.43;;;26.24;61.65
49657;BME280;71194;38.900;-77.124;2023-09-12T11:42:45;100383.47;;;26.45;61.44
49657;BME280;71194;38.900;-77.124;2023-09-12T11:45:13;100388.07;;;26.21;61.12
49657;BME280;71194;38.900;-77.124;2023-09-12T11:47:41;100394.13;;;26.09;60.81
49657;BME280;71194;38.900;-77.124;2023-09-12T11:50:26;100393.94;;;26.36;60.39
49657;BME280;71194;38.900;-77.124;2023-09-12T11:53:00;100393.23;;;26.28;60.13
49657;BME280;71194;38.900;-77.124;2023-09-12T11:55:28;100396.56;;;26.25;59.64
49657;BME280;71194;38.900;-77.124;2023-09-12T11:57:58;100391.51;;;26.27;59.27
49657;BME280;71194;38.900;-77.124;2023-09-12T12:00:27;100386.51;;;26.62;58.98
49657;BME280;71194;38.900;-77.124;2023-09-12T12:02:55;100387.37;;;26.49;58.78
49657;BME280;71194;38.900;-77.124;2023-09-12T12:05:23;100388.80;;;26.78;58.33
49657;BME280;71194;38.900;-77.124;2023-09-12T12:07:51;100389.66;;;26.98;58.20
49657;BME280;71194;38.900;-77.124;2023-09-12T12:10:19;100386.80;;;27.17;57.64
49657;BME280;71194;38.900;-77.124;2023-09-12T12:12:47;100383.92;;;27.33;57.12
49657;BME280;71194;38.900;-77.124;2023-09-12T12:15:15;100383.30;;;27.08;56.45
49657;BME280;71194;38.900;-77.124;2023-09-12T12:17:43;100387.29;;;27.85;55.67
49657;BME280;71194;38.900;-77.124;2023-09-12T12:20:12;100392.53;;;28.18;54.67
49657;BME280;71194;38.900;-77.124;2023-09-12T12:22:40;100389.40;;;28.23;54.48
49657;BME280;71194;38.900;-77.124;2023-09-12T12:25:10;100390.82;;;28.72;53.61
49657;BME280;71194;38.900;-77.124;2023-09-12T12:27:40;100392.53;;;28.31;52.76
49657;BME280;71194;38.900;-77.124;2023-09-12T12:30:10;100400.75;;;28.77;52.47
49657;BME280;71194;38.900;-77.124;2023-09-12T12:32:40;100399.74;;;28.56;51.03
49657;BME280;71194;38.900;-77.124;2023-09-12T12:35:08;100397.06;;;28.64;50.95
49657;BME280;71194;38.900;-77.124;2023-09-12T12:37:37;100392.01;;;28.42;51.35
49657;BME280;71194;38.900;-77.124;2023-09-12T12:40:09;100391.51;;;28.48;51.63